sensor_id;sensor_type;location;lat;lon;timestamp;P1;durP1;ratioP1;P2;durP2;ratioP2
4597;SDS011;62772;48.646;8.906;2023-05-01T00:00:46;10.77;;;7.63;;
4597;SDS011;62772;48.646;8.906;2023-05-01T00:05:47;12.03;;;7.70;;
4597;SDS011;62772;48.646;8.906;2023-05-01T00:10:47;10.67;;;7.43;;
4597;SDS011;62772;48.646;8.906;2023-05-01T00:15:48;10.23;;;7.40;;
4597;SDS011;62772;48.646;8.906;2023-05-01T00:20:49;9.30;;;6.60;;
4597;SDS011;62772;48.646;8.906;2023-05-01T00:25:49;10.27;;;7.30;;
4597;SDS011;62772;48.646;8.906;2023-05-01T00:30:50;12.77;;;8.47;;
4597;SDS011;62772;48.646;8.906;2023-05-01T00:35:50;15.43;;;7.60;;
4597;SDS011;62772;48.646;8.906;2023-05-01T00:40:51;11.23;;;8.17;;
4597;SDS011;62772;48.646;8.906;2023-05-01T00:45:52;11.87;;;7.87;;
4597;SDS011;62772;48.646;8.906;2023-05-01T00:50:52;10.67;;;7.00;;
4597;SDS011;62772;48.646;8.906;2023-05-01T00:55:55;8.67;;;6.37;;
4597;SDS011;62772;48.646;8.906;2023-05-01T01:00:57;9.97;;;7.20;;
4597;SDS011;62772;48.646;8.906;2023-05-01T01:06:20;8.83;;;6.30;;
4597;SDS011;62772;48.646;8.906;2023-05-01T01:11:51;9.47;;;7.23;;
4597;SDS011;62772;48.646;8.906;2023-05-01T01:22:14;11.10;;;7.70;;
4597;SDS011;62772;48.646;8.906;2023-05-01T01:43:30;12.57;;;7.80;;
4597;SDS011;62772;48.646;8.906;2023-05-01T01:48:38;10.70;;;7.13;;
4597;SDS011;62772;48.646;8.906;2023-05-01T01:53:43;11.77;;;8.43;;
4597;SDS011;62772;48.646;8.906;2023-05-01T01:58:48;12.07;;;7.43;;
4597;SDS011;62772;48.646;8.906;2023-05-01T02:03:51;13.00;;;7.77;;
4597;SDS011;62772;48.646;8.906;2023-05-01T02:08:52;18.07;;;8.10;;
4597;SDS011;62772;48.646;8.906;2023-05-01T02:13:53;12.33;;;8.13;;
4597;SDS011;62772;48.646;8.906;2023-05-01T02:18:55;11.23;;;7.80;;
4597;SDS011;62772;48.646;8.906;2023-05-01T02:23:57;12.20;;;8.90;;
4597;SDS011;62772;48.646;8.906;2023-05-01T02:29:00;10.53;;;7.70;;
4597;SDS011;62772;48.646;8.906;2023-05-01T02:34:01;12.00;;;8.10;;
4597;SDS011;62772;48.646;8.906;2023-05-01T02:39:01;11.07;;;8.13;;
4597;SDS011;62772;48.646;8.906;2023-05-01T02:44:02;12.27;;;7.43;;
4597;SDS011;62772;48.646;8.906;2023-05-01T02:49:05;10.40;;;7.20;;
4597;SDS011;62772;48.646;8.906;2023-05-01T02:54:06;10.13;;;7.23;;
4597;SDS011;62772;48.646;8.906;2023-05-01T02:59:07;12.60;;;7.60;;
4597;SDS011;62772;48.646;8.906;2023-05-01T03:04:08;9.17;;;6.90;;
4597;SDS011;62772;48.646;8.906;2023-05-01T03:09:09;10.70;;;7.50;;
4597;SDS011;62772;48.646;8.906;2023-05-01T03:14:10;10.70;;;7.37;;
4597;SDS011;62772;48.646;8.906;2023-05-01T03:19:10;10.10;;;7.77;;
4597;SDS011;62772;48.646;8.906;2023-05-01T03:24:11;11.63;;;8.53;;
4597;SDS011;62772;48.646;8.906;2023-05-01T03:29:12;12.57;;;8.40;;
4597;SDS011;62772;48.646;8.906;2023-05-01T03:34:13;13.63;;;8.03;;
4597;SDS011;62772;48.646;8.906;2023-05-01T03:39:14;13.13;;;9.07;;
4597;SDS011;62772;48.646;8.906;2023-05-01T03:44:34;14.60;;;8.50;;
4597;SDS011;62772;48.646;8.906;2023-05-01T03:49:35;11.83;;;8.50;;
4597;SDS011;62772;48.646;8.906;2023-05-01T03:54:36;14.10;;;9.27;;
4597;SDS011;62772;48.646;8.906;2023-05-01T03:59:57;12.63;;;8.70;;
4597;SDS011;62772;48.646;8.906;2023-05-01T04:04:58;13.90;;;9.03;;
4597;SDS011;62772;48.646;8.906;2023-05-01T04:10:00;12.37;;;8.80;;
4597;SDS011;62772;48.646;8.906;2023-05-01T04:15:02;16.57;;;9.17;;
4597;SDS011;62772;48.646;8.906;2023-05-01T04:20:03;11.13;;;8.27;;
4597;SDS011;62772;48.646;8.906;2023-05-01T04:25:08;11.67;;;8.30;;
4597;SDS011;62772;48.646;8.906;2023-05-01T04:30:09;11.80;;;7.60;;
4597;SDS011;62772;48.646;8.906;2023-05-01T04:35:09;14.47;;;8.30;;
4597;SDS011;62772;48.646;8.906;2023-05-01T04:40:13;15.90;;;8.43;;
4597;SDS011;62772;48.646;8.906;2023-05-01T04:45:15;15.77;;;10.40;;
4597;SDS011;62772;48.646;8.906;2023-05-01T04:50:16;13.67;;;8.53;;
4597;SDS011;62772;48.646;8.906;2023-05-01T04:55:16;13.10;;;9.53;;
4597;SDS011;62772;48.646;8.906;2023-05-01T05:00:34;16.77;;;10.03;;
4597;SDS011;62772;48.646;8.906;2023-05-01T05:05:35;16.53;;;10.13;;
4597;SDS011;62772;48.646;8.906;2023-05-01T05:10:38;15.53;;;10.17;;
4597;SDS011;62772;48.646;8.906;2023-05-01T05:16:00;14.77;;;10.87;;
4597;SDS011;62772;48.646;8.906;2023-05-01T05:21:02;15.93;;;10.10;;
4597;SDS011;62772;48.646;8.906;2023-05-01T05:26:04;14.17;;;10.03;;
4597;SDS011;62772;48.646;8.906;2023-05-01T05:31:04;13.50;;;9.70;;
4597;SDS011;62772;48.646;8.906;2023-05-01T05:36:05;14.67;;;9.67;;
4597;SDS011;62772;48.646;8.906;2023-05-01T05:41:11;12.97;;;9.83;;
4597;SDS011;62772;48.646;8.906;2023-05-01T05:46:13;16.10;;;11.07;;
4597;SDS011;62772;48.646;8.906;2023-05-01T05:51:14;16.17;;;10.90;;
4597;SDS011;62772;48.646;8.906;2023-05-01T05:56:15;15.33;;;10.30;;
4597;SDS011;62772;48.646;8.906;2023-05-01T06:01:16;16.13;;;11.40;;
4597;SDS011;62772;48.646;8.906;2023-05-01T06:06:17;15.60;;;11.00;;
4597;SDS011;62772;48.646;8.906;2023-05-01T06:11:18;16.13;;;11.17;;
4597;SDS011;62772;48.646;8.906;2023-05-01T06:16:20;18.27;;;12.00;;
4597;SDS011;62772;48.646;8.906;2023-05-01T06:21:21;16.30;;;11.73;;
4597;SDS011;62772;48.646;8.906;2023-05-01T06:26:21;15.07;;;11.17;;
4597;SDS011;62772;48.646;8.906;2023-05-01T06:31:23;16.43;;;11.57;;
4597;SDS011;62772;48.646;8.906;2023-05-01T06:36:27;18.77;;;12.03;;
4597;SDS011;62772;48.646;8.906;2023-05-01T06:41:28;22.77;;;11.47;;
4597;SDS011;62772;48.646;8.906;2023-05-01T06:46:28;16.30;;;11.07;;
4597;SDS011;62772;48.646;8.906;2023-05-01T06:51:29;18.67;;;12.60;;
4597;SDS011;62772;48.646;8.906;2023-05-01T06:56:30;16.20;;;10.80;;
4597;SDS011;62772;48.646;8.906;2023-05-01T07:01:32;18.40;;;12.37;;
4597;SDS011;62772;48.646;8.906;2023-05-01T07:06:33;20.73;;;12.97;;
4597;SDS011;62772;48.646;8.906;2023-05-01T07:11:34;17.80;;;12.33;;
4597;SDS011;62772;48.646;8.906;2023-05-01T07:16:34;18.53;;;11.50;;
4597;SDS011;62772;48.646;8.906;2023-05-01T07:21:35;16.13;;;11.47;;
4597;SDS011;62772;48.646;8.906;2023-05-01T07:26:35;16.87;;;12.20;;
4597;SDS011;62772;48.646;8.906;2023-05-01T07:31:37;20.37;;;12.80;;
4597;SDS011;62772;48.646;8.906;2023-05-01T07:36:38;17.23;;;11.90;;
4597;SDS011;62772;48.646;8.906;2023-05-01T07:41:38;19.17;;;11.70;;
4597;SDS011;62772;48.646;8.906;2023-05-01T07:46:39;16.80;;;11.00;;
4597;SDS011;62772;48.646;8.906;2023-05-01T07:51:40;18.43;;;12.20;;
4597;SDS011;62772;48.646;8.906;2023-05-01T07:56:41;19.13;;;13.03;;
4597;SDS011;62772;48.646;8.906;2023-05-01T08:01:42;20.60;;;12.87;;
4597;SDS011;62772;48.646;8.906;2023-05-01T08:06:42;19.80;;;12.50;;
4597;SDS011;62772;48.646;8.906;2023-05-01T08:11:43;14.40;;;10.77;;
4597;SDS011;62772;48.646;8.906;2023-05-01T08:16:44;17.10;;;11.50;;
4597;SDS011;62772;48.646;8.906;2023-05-01T08:21:44;17.47;;;11.50;;
4597;SDS011;62772;48.646;8.906;2023-05-01T08:26:45;20.23;;;12.30;;
4597;SDS011;62772;48.646;8.906;2023-05-01T08:31:46;16.63;;;10.87;;
4597;SDS011;62772;48.646;8.906;2023-05-01T08:36:46;17.23;;;11.73;;
4597;SDS011;62772;48.646;8.906;2023-05-01T08:41:47;16.73;;;11.27;;
4597;SDS011;62772;48.646;8.906;2023-05-01T08:52:14;19.53;;;11.80;;
4597;SDS011;62772;48.646;8.906;2023-05-01T08:57:14;14.20;;;10.27;;
4597;SDS011;62772;48.646;8.906;2023-05-01T09:02:17;16.83;;;10.80;;
4597;SDS011;62772;48.646;8.906;2023-05-01T09:07:19;15.30;;;10.60;;
4597;SDS011;62772;48.646;8.906;2023-05-01T09:12:26;13.73;;;10.10;;
4597;SDS011;62772;48.646;8.906;2023-05-01T09:17:26;14.20;;;10.17;;
4597;SDS011;62772;48.646;8.906;2023-05-01T09:22:30;15.03;;;10.17;;
4597;SDS011;62772;48.646;8.906;2023-05-01T09:27:35;17.40;;;10.10;;
4597;SDS011;62772;48.646;8.906;2023-05-01T09:32:37;13.10;;;9.60;;
4597;SDS011;62772;48.646;8.906;2023-05-01T09:37:38;14.90;;;9.30;;
4597;SDS011;62772;48.646;8.906;2023-05-01T09:42:48;15.07;;;9.87;;
4597;SDS011;62772;48.646;8.906;2023-05-01T09:47:51;14.27;;;9.60;;
4597;SDS011;62772;48.646;8.906;2023-05-01T09:52:52;13.43;;;8.97;;
4597;SDS011;62772;48.646;8.906;2023-05-01T09:57:53;12.67;;;8.80;;
4597;SDS011;62772;48.646;8.906;2023-05-01T10:02:53;12.80;;;7.80;;
4597;SDS011;62772;48.646;8.906;2023-05-01T10:07:55;9.10;;;6.93;;
4597;SDS011;62772;48.646;8.906;2023-05-01T10:13:11;10.43;;;7.40;;
4597;SDS011;62772;48.646;8.906;2023-05-01T10:18:13;13.33;;;8.27;;
4597;SDS011;62772;48.646;8.906;2023-05-01T10:23:14;9.53;;;6.70;;
4597;SDS011;62772;48.646;8.906;2023-05-01T10:28:15;12.90;;;8.40;;
4597;SDS011;62772;48.646;8.906;2023-05-01T10:33:16;10.60;;;7.30;;
4597;SDS011;62772;48.646;8.906;2023-05-01T10:38:28;12.27;;;7.90;;
4597;SDS011;62772;48.646;8.906;2023-05-01T10:43:34;13.33;;;8.13;;
4597;SDS011;62772;48.646;8.906;2023-05-01T10:53:41;22.50;;;13.20;;
4597;SDS011;62772;48.646;8.906;2023-05-01T11:03:50;12.00;;;9.20;;
4597;SDS011;62772;48.646;8.906;2023-05-01T11:08:51;13.43;;;8.50;;
4597;SDS011;62772;48.646;8.906;2023-05-01T11:19:06;11.90;;;7.70;;
4597;SDS011;62772;48.646;8.906;2023-05-01T11:24:08;11.40;;;7.50;;
4597;SDS011;62772;48.646;8.906;2023-05-01T11:29:09;10.37;;;7.20;;
4597;SDS011;62772;48.646;8.906;2023-05-01T11:34:10;9.50;;;6.97;;
4597;SDS011;62772;48.646;8.906;2023-05-01T11:39:15;10.20;;;6.30;;
4597;SDS011;62772;48.646;8.906;2023-05-01T11:44:19;10.07;;;7.20;;
4597;SDS011;62772;48.646;8.906;2023-05-01T11:49:24;10.87;;;6.27;;
4597;SDS011;62772;48.646;8.906;2023-05-01T11:54:28;8.30;;;5.90;;
4597;SDS011;62772;48.646;8.906;2023-05-01T11:59:29;9.07;;;5.70;;
4597;SDS011;62772;48.646;8.906;2023-05-01T12:04:29;9.33;;;5.87;;
4597;SDS011;62772;48.646;8.906;2023-05-01T12:09:30;7.67;;;5.53;;
4597;SDS011;62772;48.646;8.906;2023-05-01T12:14:32;8.83;;;5.13;;
4597;SDS011;62772;48.646;8.906;2023-05-01T12:19:33;6.77;;;5.00;;
4597;SDS011;62772;48.646;8.906;2023-05-01T12:24:34;8.73;;;5.73;;
4597;SDS011;62772;48.646;8.906;2023-05-01T12:29:38;8.60;;;5.77;;
4597;SDS011;62772;48.646;8.906;2023-05-01T12:34:40;10.03;;;7.00;;
4597;SDS011;62772;48.646;8.906;2023-05-01T12:39:41;9.80;;;6.33;;
4597;SDS011;62772;48.646;8.906;2023-05-01T12:44:43;7.37;;;5.50;;
4597;SDS011;62772;48.646;8.906;2023-05-01T12:49:44;6.50;;;4.60;;
4597;SDS011;62772;48.646;8.906;2023-05-01T12:54:44;7.73;;;4.93;;
4597;SDS011;62772;48.646;8.906;2023-05-01T12:59:45;7.50;;;5.33;;
4597;SDS011;62772;48.646;8.906;2023-05-01T13:04:46;7.50;;;5.90;;
4597;SDS011;62772;48.646;8.906;2023-05-01T13:09:51;9.10;;;6.77;;
4597;SDS011;62772;48.646;8.906;2023-05-01T13:14:54;8.87;;;6.53;;
4597;SDS011;62772;48.646;8.906;2023-05-01T13:19:59;8.93;;;6.40;;
4597;SDS011;62772;48.646;8.906;2023-05-01T13:25:02;13.90;;;9.90;;
4597;SDS011;62772;48.646;8.906;2023-05-01T13:30:05;13.20;;;9.73;;
4597;SDS011;62772;48.646;8.906;2023-05-01T13:35:06;14.37;;;10.40;;
4597;SDS011;62772;48.646;8.906;2023-05-01T13:40:07;19.50;;;9.67;;
4597;SDS011;62772;48.646;8.906;2023-05-01T13:45:08;15.50;;;10.67;;
4597;SDS011;62772;48.646;8.906;2023-05-01T13:50:13;13.73;;;9.30;;
4597;SDS011;62772;48.646;8.906;2023-05-01T13:55:15;16.40;;;9.83;;
4597;SDS011;62772;48.646;8.906;2023-05-01T14:00:16;15.57;;;9.60;;
4597;SDS011;62772;48.646;8.906;2023-05-01T14:05:20;13.80;;;9.17;;
4597;SDS011;62772;48.646;8.906;2023-05-01T14:10:26;12.73;;;9.33;;
4597;SDS011;62772;48.646;8.906;2023-05-01T14:15:27;14.33;;;9.70;;
4597;SDS011;62772;48.646;8.906;2023-05-01T14:20:28;17.03;;;10.37;;
4597;SDS011;62772;48.646;8.906;2023-05-01T14:25:29;12.17;;;8.30;;
4597;SDS011;62772;48.646;8.906;2023-05-01T14:30:36;11.83;;;5.67;;
4597;SDS011;62772;48.646;8.906;2023-05-01T14:35:51;7.10;;;4.20;;
4597;SDS011;62772;48.646;8.906;2023-05-01T14:40:52;13.13;;;8.07;;
4597;SDS011;62772;48.646;8.906;2023-05-01T14:45:53;11.30;;;4.83;;
4597;SDS011;62772;48.646;8.906;2023-05-01T14:50:54;7.90;;;5.40;;
4597;SDS011;62772;48.646;8.906;2023-05-01T14:55:55;15.17;;;8.63;;
4597;SDS011;62772;48.646;8.906;2023-05-01T15:00:55;9.10;;;6.47;;
4597;SDS011;62772;48.646;8.906;2023-05-01T15:05:56;7.77;;;5.23;;
4597;SDS011;62772;48.646;8.906;2023-05-01T15:10:56;9.50;;;6.27;;
4597;SDS011;62772;48.646;8.906;2023-05-01T15:15:57;9.53;;;6.20;;
4597;SDS011;62772;48.646;8.906;2023-05-01T15:20:57;6.90;;;4.83;;
4597;SDS011;62772;48.646;8.906;2023-05-01T15:25:58;7.97;;;4.57;;
4597;SDS011;62772;48.646;8.906;2023-05-01T15:31:00;7.93;;;5.30;;
4597;SDS011;62772;48.646;8.906;2023-05-01T15:36:01;9.60;;;4.23;;
4597;SDS011;62772;48.646;8.906;2023-05-01T15:41:01;11.97;;;5.63;;
4597;SDS011;62772;48.646;8.906;2023-05-01T15:46:02;7.23;;;4.40;;
4597;SDS011;62772;48.646;8.906;2023-05-01T15:51:04;4.70;;;3.80;;
4597;SDS011;62772;48.646;8.906;2023-05-01T15:56:05;5.43;;;3.87;;
4597;SDS011;62772;48.646;8.906;2023-05-01T16:01:10;5.80;;;4.10;;
4597;SDS011;62772;48.646;8.906;2023-05-01T16:06:12;6.53;;;4.57;;
4597;SDS011;62772;48.646;8.906;2023-05-01T16:11:14;7.30;;;5.07;;
4597;SDS011;62772;48.646;8.906;2023-05-01T16:16:18;5.77;;;4.40;;
4597;SDS011;62772;48.646;8.906;2023-05-01T16:21:22;7.13;;;3.97;;
4597;SDS011;62772;48.646;8.906;2023-05-01T16:26:25;5.90;;;3.30;;
4597;SDS011;62772;48.646;8.906;2023-05-01T16:31:26;5.57;;;4.07;;
4597;SDS011;62772;48.646;8.906;2023-05-01T16:36:34;5.87;;;3.67;;
4597;SDS011;62772;48.646;8.906;2023-05-01T16:41:39;6.17;;;3.80;;
4597;SDS011;62772;48.646;8.906;2023-05-01T16:46:48;6.00;;;4.23;;
4597;SDS011;62772;48.646;8.906;2023-05-01T16:51:52;10.77;;;5.70;;
4597;SDS011;62772;48.646;8.906;2023-05-01T16:56:56;8.73;;;5.57;;
4597;SDS011;62772;48.646;8.906;2023-05-01T17:01:57;8.73;;;4.93;;
4597;SDS011;62772;48.646;8.906;2023-05-01T17:07:00;7.80;;;5.13;;
4597;SDS011;62772;48.646;8.906;2023-05-01T17:12:01;12.30;;;8.70;;
4597;SDS011;62772;48.646;8.906;2023-05-01T17:17:02;8.97;;;5.83;;
4597;SDS011;62772;48.646;8.906;2023-05-01T17:22:03;7.70;;;5.13;;
4597;SDS011;62772;48.646;8.906;2023-05-01T17:27:04;6.17;;;4.33;;
4597;SDS011;62772;48.646;8.906;2023-05-01T17:32:05;8.97;;;5.50;;
4597;SDS011;62772;48.646;8.906;2023-05-01T17:37:05;7.27;;;5.00;;
4597;SDS011;62772;48.646;8.906;2023-05-01T17:42:07;8.40;;;4.70;;
4597;SDS011;62772;48.646;8.906;2023-05-01T17:47:08;8.53;;;5.53;;
4597;SDS011;62772;48.646;8.906;2023-05-01T17:52:08;8.37;;;5.60;;
4597;SDS011;62772;48.646;8.906;2023-05-01T17:57:09;8.83;;;5.67;;
4597;SDS011;62772;48.646;8.906;2023-05-01T18:02:09;10.87;;;6.40;;
4597;SDS011;62772;48.646;8.906;2023-05-01T18:07:10;9.10;;;6.33;;
4597;SDS011;62772;48.646;8.906;2023-05-01T18:12:11;11.07;;;7.00;;
4597;SDS011;62772;48.646;8.906;2023-05-01T18:17:11;11.77;;;8.33;;
4597;SDS011;62772;48.646;8.906;2023-05-01T18:22:12;12.80;;;8.27;;
4597;SDS011;62772;48.646;8.906;2023-05-01T18:27:12;14.10;;;8.23;;
4597;SDS011;62772;48.646;8.906;2023-05-01T18:32:13;15.20;;;8.40;;
4597;SDS011;62772;48.646;8.906;2023-05-01T18:37:14;13.27;;;8.10;;
4597;SDS011;62772;48.646;8.906;2023-05-01T18:42:14;11.67;;;7.80;;
4597;SDS011;62772;48.646;8.906;2023-05-01T18:47:15;15.07;;;8.77;;
4597;SDS011;62772;48.646;8.906;2023-05-01T18:52:15;13.83;;;9.80;;
4597;SDS011;62772;48.646;8.906;2023-05-01T18:57:16;16.10;;;9.13;;
4597;SDS011;62772;48.646;8.906;2023-05-01T19:02:16;16.43;;;11.73;;
4597;SDS011;62772;48.646;8.906;2023-05-01T19:07:17;12.97;;;9.40;;
4597;SDS011;62772;48.646;8.906;2023-05-01T19:12:17;13.70;;;7.83;;
4597;SDS011;62772;48.646;8.906;2023-05-01T19:17:18;7.93;;;6.13;;
4597;SDS011;62772;48.646;8.906;2023-05-01T19:22:18;9.97;;;6.90;;
4597;SDS011;62772;48.646;8.906;2023-05-01T19:27:19;10.50;;;6.93;;
4597;SDS011;62772;48.646;8.906;2023-05-01T19:32:20;9.87;;;7.00;;
4597;SDS011;62772;48.646;8.906;2023-05-01T19:37:20;11.13;;;7.47;;
4597;SDS011;62772;48.646;8.906;2023-05-01T19:42:20;15.03;;;7.60;;
4597;SDS011;62772;48.646;8.906;2023-05-01T19:47:21;11.13;;;7.10;;
4597;SDS011;62772;48.646;8.906;2023-05-01T19:52:24;14.90;;;8.47;;
4597;SDS011;62772;48.646;8.906;2023-05-01T19:57:25;12.53;;;8.00;;
4597;SDS011;62772;48.646;8.906;2023-05-01T20:02:26;15.27;;;9.67;;
4597;SDS011;62772;48.646;8.906;2023-05-01T20:07:26;18.63;;;12.10;;
4597;SDS011;62772;48.646;8.906;2023-05-01T20:12:29;18.13;;;11.83;;
4597;SDS011;62772;48.646;8.906;2023-05-01T20:17:31;13.43;;;9.60;;
4597;SDS011;62772;48.646;8.906;2023-05-01T20:22:33;13.57;;;8.70;;
4597;SDS011;62772;48.646;8.906;2023-05-01T20:27:33;11.90;;;8.50;;
4597;SDS011;62772;48.646;8.906;2023-05-01T20:32:33;11.50;;;8.33;;
4597;SDS011;62772;48.646;8.906;2023-05-01T20:37:35;12.40;;;8.87;;
4597;SDS011;62772;48.646;8.906;2023-05-01T20:42:36;12.90;;;8.47;;
4597;SDS011;62772;48.646;8.906;2023-05-01T20:47:36;12.83;;;9.00;;
4597;SDS011;62772;48.646;8.906;2023-05-01T20:52:37;16.73;;;9.53;;
4597;SDS011;62772;48.646;8.906;2023-05-01T20:57:38;14.63;;;9.37;;
4597;SDS011;62772;48.646;8.906;2023-05-01T21:02:39;13.33;;;8.97;;
4597;SDS011;62772;48.646;8.906;2023-05-01T21:07:40;12.90;;;8.40;;
4597;SDS011;62772;48.646;8.906;2023-05-01T21:12:41;13.03;;;7.90;;
4597;SDS011;62772;48.646;8.906;2023-05-01T21:17:41;11.03;;;7.80;;
4597;SDS011;62772;48.646;8.906;2023-05-01T21:22:42;13.00;;;8.73;;
4597;SDS011;62772;48.646;8.906;2023-05-01T21:27:44;11.60;;;8.17;;
4597;SDS011;62772;48.646;8.906;2023-05-01T21:32:45;16.83;;;7.97;;
4597;SDS011;62772;48.646;8.906;2023-05-01T21:37:46;12.57;;;9.03;;
4597;SDS011;62772;48.646;8.906;2023-05-01T21:42:46;11.33;;;8.20;;
4597;SDS011;62772;48.646;8.906;2023-05-01T21:47:48;12.73;;;8.73;;
4597;SDS011;62772;48.646;8.906;2023-05-01T21:52:49;15.33;;;9.50;;
4597;SDS011;62772;48.646;8.906;2023-05-01T21:57:50;15.07;;;9.17;;
4597;SDS011;62772;48.646;8.906;2023-05-01T22:02:51;13.80;;;9.13;;
4597;SDS011;62772;48.646;8.906;2023-05-01T22:07:51;11.90;;;9.20;;
4597;SDS011;62772;48.646;8.906;2023-05-01T22:12:53;11.87;;;7.93;;
4597;SDS011;62772;48.646;8.906;2023-05-01T22:17:53;11.43;;;7.87;;
4597;SDS011;62772;48.646;8.906;2023-05-01T22:22:53;9.90;;;6.77;;
4597;SDS011;62772;48.646;8.906;2023-05-01T22:27:54;10.87;;;7.50;;
4597;SDS011;62772;48.646;8.906;2023-05-01T22:32:54;8.27;;;6.20;;
4597;SDS011;62772;48.646;8.906;2023-05-01T22:37:55;9.33;;;7.03;;
4597;SDS011;62772;48.646;8.906;2023-05-01T22:42:55;9.60;;;6.63;;
4597;SDS011;62772;48.646;8.906;2023-05-01T22:47:56;11.83;;;7.37;;
4597;SDS011;62772;48.646;8.906;2023-05-01T22:52:56;8.97;;;6.10;;
4597;SDS011;62772;48.646;8.906;2023-05-01T22:57:56;10.93;;;7.10;;
4597;SDS011;62772;48.646;8.906;2023-05-01T23:02:57;9.27;;;6.70;;
4597;SDS011;62772;48.646;8.906;2023-05-01T23:07:59;11.10;;;6.30;;
4597;SDS011;62772;48.646;8.906;2023-05-01T23:12:59;9.20;;;6.70;;
4597;SDS011;62772;48.646;8.906;2023-05-01T23:18:00;9.63;;;6.30;;
4597;SDS011;62772;48.646;8.906;2023-05-01T23:23:01;8.93;;;6.53;;
4597;SDS011;62772;48.646;8.906;2023-05-01T23:28:04;10.10;;;7.03;;
4597;SDS011;62772;48.646;8.906;2023-05-01T23:33:05;11.10;;;7.50;;
4597;SDS011;62772;48.646;8.906;2023-05-01T23:38:05;9.07;;;6.83;;
4597;SDS011;62772;48.646;8.906;2023-05-01T23:43:06;10.47;;;6.93;;
4597;SDS011;62772;48.646;8.906;2023-05-01T23:48:07;10.57;;;7.60;;
4597;SDS011;62772;48.646;8.906;2023-05-01T23:53:08;9.53;;;6.70;;
4597;SDS011;62772;48.646;8.906;2023-05-01T23:58:08;9.67;;;6.77;;
